createdAt,value
2022-10-10T00:24:03.010Z,10.25
2022-10-10T00:26:29.913Z,10.23
2022-10-10T00:28:56.774Z,10.22
2022-10-10T00:31:23.729Z,10.18
2022-10-10T00:33:50.651Z,10.20
2022-10-10T00:36:17.305Z,10.18
2022-10-10T00:38:43.878Z,10.19
2022-10-10T00:41:10.538Z,10.19
2022-10-10T00:43:37.607Z,10.20
2022-10-10T00:46:04.441Z,10.19
2022-10-10T00:48:39.514Z,10.18
2022-10-10T00:51:12.616Z,10.19
2022-10-10T00:54:07.934Z,10.18
2022-10-10T00:56:39.890Z,10.18
2022-10-10T00:59:11.041Z,10.18
2022-10-10T01:01:39.331Z,10.16
2022-10-10T01:04:06.428Z,10.17
2022-10-10T01:06:34.683Z,10.19
2022-10-10T01:09:01.251Z,10.21
2022-10-10T01:11:39.931Z,10.21
2022-10-10T01:14:23.772Z,10.23
2022-10-10T01:16:58.058Z,10.19
2022-10-10T01:19:34.814Z,10.17
2022-10-10T01:22:07.041Z,10.18
2022-10-10T01:24:52.236Z,10.19
2022-10-10T01:27:28.926Z,10.21
2022-10-10T01:29:59.840Z,10.24
2022-10-10T01:32:40.119Z,10.26
2022-10-10T01:35:23.998Z,10.26
2022-10-10T01:37:59.738Z,10.29
2022-10-10T01:40:42.567Z,10.29
2022-10-10T01:43:11.459Z,10.29
2022-10-10T01:45:38.111Z,10.33
2022-10-10T01:48:07.426Z,10.29
2022-10-10T01:50:42.722Z,10.33
2022-10-10T01:54:01.834Z,10.32
2022-10-10T01:56:46.873Z,10.27
2022-10-10T01:59:25.513Z,10.24
2022-10-10T02:02:08.667Z,10.23
2022-10-10T02:04:58.988Z,10.20
2022-10-10T02:07:37.873Z,10.16
2022-10-10T02:10:07.617Z,10.12
2022-10-10T02:12:36.174Z,10.11
2022-10-10T02:15:14.205Z,10.06
2022-10-10T02:17:43.662Z,10.06
2022-10-10T02:20:13.457Z,10.03
2022-10-10T02:22:42.946Z,10.01
2022-10-10T02:25:09.763Z,9.99
2022-10-10T02:27:47.808Z,9.96
2022-10-10T02:30:15.619Z,9.98
2022-10-10T02:32:45.365Z,10.03
2022-10-10T02:35:18.172Z,10.08
2022-10-10T02:37:47.032Z,10.13
2022-10-10T02:40:20.641Z,10.13
2022-10-10T02:42:49.292Z,10.19
2022-10-10T02:45:17.752Z,10.26
2022-10-10T02:47:44.940Z,10.29
2022-10-10T02:50:11.667Z,10.30
2022-10-10T02:52:38.623Z,10.34
2022-10-10T02:55:05.818Z,10.36
2022-10-10T02:57:32.437Z,10.34
2022-10-10T02:59:58.996Z,10.37
2022-10-10T03:02:25.582Z,10.40
2022-10-10T03:04:52.281Z,10.39
2022-10-10T03:07:19.086Z,10.41
2022-10-10T03:09:45.650Z,10.41
2022-10-10T03:12:12.449Z,10.44
2022-10-10T03:14:39.012Z,10.44
2022-10-10T03:17:05.634Z,10.46
2022-10-10T03:19:32.287Z,10.48
2022-10-10T03:21:58.876Z,10.47
2022-10-10T03:24:26.078Z,10.50
2022-10-10T03:26:52.689Z,10.52
2022-10-10T03:29:19.309Z,10.53
2022-10-10T03:31:45.857Z,10.64
2022-10-10T03:34:12.437Z,10.64
2022-10-10T03:36:38.994Z,10.65
2022-10-10T03:39:05.669Z,10.70
2022-10-10T03:41:32.346Z,10.72
2022-10-10T03:43:59.020Z,10.73
2022-10-10T03:46:25.680Z,10.76
2022-10-10T03:48:52.265Z,10.71
2022-10-10T03:51:18.935Z,10.68
2022-10-10T03:53:45.527Z,10.64
2022-10-10T03:56:12.320Z,10.61
2022-10-10T03:58:38.892Z,10.61
2022-10-10T04:01:05.845Z,10.57
2022-10-10T04:03:32.494Z,10.52
2022-10-10T04:05:59.762Z,10.48
2022-10-10T04:08:26.606Z,10.44
2022-10-10T04:10:54.638Z,10.39
2022-10-10T04:13:25.878Z,10.38
2022-10-10T04:15:54.019Z,10.38
2022-10-10T04:18:21.189Z,10.36
2022-10-10T04:20:47.744Z,10.34
2022-10-10T04:23:14.352Z,10.28
2022-10-10T04:25:41.797Z,10.26
2022-10-10T04:28:12.245Z,10.28
2022-10-10T04:30:38.860Z,10.25
2022-10-10T04:33:05.377Z,10.24
2022-10-10T04:35:31.994Z,10.24
2022-10-10T04:37:58.711Z,10.25
2022-10-10T04:40:26.777Z,10.23
2022-10-10T04:42:54.600Z,10.27
2022-10-10T04:45:21.191Z,10.25
2022-10-10T04:47:47.699Z,10.22
2022-10-10T04:50:14.282Z,10.25
2022-10-10T04:52:40.844Z,10.22
2022-10-10T04:55:07.731Z,10.22
2022-10-10T04:57:34.359Z,10.21
2022-10-10T05:00:00.949Z,10.19
2022-10-10T05:02:27.625Z,10.15
2022-10-10T05:04:54.246Z,10.11
2022-10-10T05:07:21.328Z,10.08
2022-10-10T05:09:47.883Z,10.08
2022-10-10T05:12:14.515Z,10.07
2022-10-10T05:14:44.604Z,10.08
2022-10-10T05:17:14.003Z,10.08
2022-10-10T05:19:40.610Z,10.09
2022-10-10T05:22:07.322Z,10.12
2022-10-10T05:24:34.693Z,10.13
2022-10-10T05:27:01.204Z,10.13
2022-10-10T05:29:27.744Z,10.14
2022-10-10T05:31:54.316Z,10.32
2022-10-10T05:34:20.845Z,10.44
2022-10-10T05:36:47.381Z,10.51
2022-10-10T05:39:13.987Z,10.46
2022-10-10T05:41:40.605Z,10.39
2022-10-10T05:44:07.263Z,10.34
2022-10-10T05:46:33.926Z,10.34
2022-10-10T05:49:00.445Z,10.36
2022-10-10T05:51:27.157Z,10.39
2022-10-10T05:53:53.709Z,10.39
2022-10-10T05:56:20.251Z,10.41
2022-10-10T05:58:46.949Z,10.42
2022-10-10T06:01:13.550Z,10.48
2022-10-10T06:03:40.129Z,10.52
2022-10-10T06:06:07.410Z,10.56
2022-10-10T06:08:34.301Z,10.61
2022-10-10T06:11:07.998Z,10.65
2022-10-10T06:13:34.936Z,10.69
2022-10-10T06:16:01.661Z,10.74
2022-10-10T06:18:28.206Z,10.77
2022-10-10T06:20:55.035Z,10.81
2022-10-10T06:23:21.832Z,10.89
2022-10-10T06:25:51.645Z,10.98
2022-10-10T06:28:18.222Z,11.05
2022-10-10T06:30:45.283Z,11.12
2022-10-10T06:33:12.612Z,11.17
2022-10-10T06:35:41.791Z,11.23
2022-10-10T06:38:08.689Z,11.29
2022-10-10T06:40:35.535Z,11.39
2022-10-10T06:43:02.145Z,11.44
2022-10-10T06:45:28.836Z,11.48
2022-10-10T06:47:55.500Z,11.55
2022-10-10T06:50:22.264Z,11.63
2022-10-10T06:52:49.247Z,11.64
2022-10-10T06:55:16.115Z,11.73
2022-10-10T06:57:42.686Z,11.83
2022-10-10T07:00:10.182Z,11.93
2022-10-10T07:02:40.630Z,12.03
2022-10-10T07:05:11.777Z,12.15
2022-10-10T07:07:39.397Z,12.26
2022-10-10T07:10:07.111Z,12.32
2022-10-10T07:12:39.600Z,12.33
2022-10-10T07:15:10.285Z,12.43
2022-10-10T07:17:37.053Z,12.47
2022-10-10T07:20:03.893Z,12.59
2022-10-10T07:22:30.409Z,12.69
2022-10-10T07:24:57.091Z,12.69
2022-10-10T07:27:23.591Z,12.71
2022-10-10T07:29:50.121Z,12.77
2022-10-10T07:32:16.696Z,12.89
2022-10-10T07:34:43.332Z,12.98
2022-10-10T07:37:09.882Z,13.05
2022-10-10T07:39:36.503Z,13.18
2022-10-10T07:42:03.102Z,13.18
2022-10-10T07:44:34.281Z,13.23
2022-10-10T07:47:01.479Z,13.21
2022-10-10T07:49:28.293Z,13.35
2022-10-10T07:51:58.860Z,13.40
2022-10-10T07:54:27.301Z,13.41
2022-10-10T07:56:53.928Z,13.31
2022-10-10T07:59:20.602Z,13.35
2022-10-10T08:01:47.400Z,13.55
2022-10-10T08:04:14.113Z,13.66
2022-10-10T08:06:40.658Z,13.74
2022-10-10T08:09:07.242Z,13.84
2022-10-10T08:11:36.455Z,13.85
2022-10-10T08:14:03.499Z,13.89
2022-10-10T08:16:30.082Z,13.97
2022-10-10T08:18:56.709Z,13.96
2022-10-10T08:21:23.492Z,13.81
2022-10-10T08:23:50.129Z,13.95
2022-10-10T08:26:18.098Z,13.83
2022-10-10T08:28:45.253Z,13.90
2022-10-10T08:31:14.915Z,13.76
2022-10-10T08:33:43.376Z,14.14
2022-10-10T08:36:19.273Z,14.15
2022-10-10T08:38:46.635Z,13.85
2022-10-10T08:41:40.068Z,14.26
2022-10-10T08:44:29.931Z,14.11
2022-10-10T08:47:07.508Z,14.20
2022-10-10T08:50:01.832Z,14.37
2022-10-10T08:52:48.866Z,14.32
2022-10-10T08:55:21.770Z,14.45
2022-10-10T08:57:52.846Z,14.41
2022-10-10T09:00:22.534Z,14.64
2022-10-10T09:02:54.556Z,14.61
2022-10-10T09:05:40.303Z,14.27
2022-10-10T09:08:35.895Z,13.98
2022-10-10T09:11:20.927Z,14.32
2022-10-10T09:13:53.456Z,14.28
2022-10-10T09:16:46.549Z,14.28
2022-10-10T09:19:34.794Z,14.15
2022-10-10T09:22:11.119Z,14.18
2022-10-10T09:24:44.569Z,14.34
2022-10-10T09:27:24.869Z,14.51
2022-10-10T09:30:17.627Z,14.27
2022-10-10T09:33:19.663Z,14.41
2022-10-10T09:35:48.413Z,14.48
2022-10-10T09:38:41.457Z,14.74
2022-10-10T09:41:14.919Z,14.43
2022-10-10T09:43:42.012Z,14.75
2022-10-10T09:46:13.206Z,14.86
2022-10-10T09:48:42.066Z,14.33
2022-10-10T09:51:18.297Z,14.58
2022-10-10T09:53:47.749Z,14.74
2022-10-10T09:56:18.118Z,14.82
2022-10-10T09:58:47.724Z,14.87
2022-10-10T10:01:24.808Z,14.82
2022-10-10T10:04:27.717Z,14.81
2022-10-10T10:07:16.082Z,14.67
2022-10-10T10:09:47.882Z,14.46
2022-10-10T10:12:17.820Z,14.86
2022-10-10T10:14:44.435Z,14.34
2022-10-10T10:17:15.054Z,14.77
2022-10-10T10:19:45.649Z,15.06
2022-10-10T10:22:33.097Z,15.14
2022-10-10T10:25:20.843Z,15.01
2022-10-10T10:27:47.460Z,14.68
2022-10-10T10:30:25.650Z,14.22
2022-10-10T10:33:07.650Z,14.09
2022-10-10T10:35:56.324Z,14.75
2022-10-10T10:38:34.364Z,15.00
2022-10-10T10:41:21.467Z,15.11
2022-10-10T10:44:01.017Z,15.17
2022-10-10T10:46:46.565Z,14.88
2022-10-10T10:49:25.523Z,15.15
2022-10-10T10:52:20.974Z,14.77
2022-10-10T10:55:11.979Z,15.09
2022-10-10T10:58:10.362Z,15.65
2022-10-10T11:01:23.641Z,15.63
2022-10-10T11:05:20.936Z,15.58
2022-10-10T11:07:20.679Z,15.70
2022-10-10T11:09:54.230Z,15.91
2022-10-10T11:12:47.268Z,15.93
2022-10-10T11:15:23.650Z,15.82
2022-10-10T11:18:00.263Z,16.03
2022-10-10T11:20:39.161Z,15.68
2022-10-10T11:23:13.095Z,15.94
2022-10-10T11:25:43.424Z,15.78
2022-10-10T11:28:22.347Z,15.84
2022-10-10T11:30:59.683Z,15.93
2022-10-10T11:34:01.873Z,16.06
2022-10-10T11:36:31.719Z,15.99
2022-10-10T11:39:30.292Z,16.09
2022-10-10T11:42:03.377Z,16.09
2022-10-10T11:45:02.268Z,16.11
2022-10-10T11:47:59.305Z,15.98
2022-10-10T11:50:29.340Z,16.01
2022-10-10T11:53:34.206Z,15.96
2022-10-10T11:56:18.435Z,16.02
2022-10-10T11:58:50.849Z,16.40
2022-10-10T12:01:42.058Z,16.28
2022-10-10T12:04:08.704Z,16.57
2022-10-10T12:07:07.156Z,16.37
2022-10-10T12:09:39.593Z,16.47
2022-10-10T12:12:08.911Z,16.14
2022-10-10T12:14:39.612Z,16.33
2022-10-10T12:17:20.180Z,16.42
2022-10-10T12:19:50.264Z,16.24
2022-10-10T12:22:30.944Z,16.30
2022-10-10T12:25:23.549Z,16.34
2022-10-10T12:28:15.226Z,16.57
2022-10-10T12:31:05.270Z,16.33
2022-10-10T12:33:32.702Z,16.66
2022-10-10T12:36:28.237Z,16.93
2022-10-10T12:39:06.187Z,17.58
2022-10-10T12:41:46.995Z,17.98
2022-10-10T12:44:53.484Z,18.91
2022-10-10T12:48:00.268Z,19.29
2022-10-10T12:50:34.008Z,17.93
2022-10-10T12:53:18.337Z,19.22
2022-10-10T12:55:49.009Z,18.64
2022-10-10T12:58:27.469Z,19.27
2022-10-10T13:00:59.727Z,18.19
2022-10-10T13:03:42.441Z,18.14
2022-10-10T13:06:33.314Z,17.93
2022-10-10T13:09:02.571Z,17.75
2022-10-10T13:11:29.197Z,17.02
2022-10-10T13:13:57.223Z,16.76
2022-10-10T13:16:33.653Z,16.17
2022-10-10T13:19:01.024Z,16.28
2022-10-10T13:21:32.062Z,17.64
2022-10-10T13:24:03.712Z,18.13
2022-10-10T13:26:50.110Z,19.13
2022-10-10T13:29:26.249Z,18.15
2022-10-10T13:31:55.264Z,19.02
2022-10-10T13:34:27.463Z,18.28
2022-10-10T13:36:59.513Z,18.27
2022-10-10T13:39:28.641Z,16.61
2022-10-10T13:41:56.080Z,16.91
2022-10-10T13:44:26.179Z,15.93
2022-10-10T13:46:52.801Z,15.43
2022-10-10T13:49:24.499Z,14.67
2022-10-10T13:52:05.504Z,14.79
2022-10-10T13:54:42.542Z,14.47
2022-10-10T13:57:26.894Z,14.83
2022-10-10T14:00:05.425Z,14.50
2022-10-10T14:02:36.080Z,14.64
2022-10-10T14:05:18.961Z,14.27
2022-10-10T14:44:27.498Z,14.90
2022-10-10T14:46:54.166Z,15.35
2022-10-10T14:49:21.620Z,14.82
2022-10-10T14:51:48.637Z,14.60
2022-10-10T14:54:15.784Z,14.20
2022-10-10T14:57:07.195Z,14.05
2022-10-10T14:59:48.126Z,13.78
2022-10-10T15:02:20.944Z,13.31
2022-10-10T15:04:48.642Z,13.22
2022-10-10T15:07:16.600Z,14.05
2022-10-10T15:10:17.578Z,14.14
2022-10-10T15:12:32.666Z,14.01
2022-10-10T15:14:59.513Z,14.08
2022-10-10T17:01:05.700Z,13.21
2022-10-10T17:03:32.758Z,13.51
2022-10-10T17:06:09.678Z,13.63
2022-10-10T17:08:36.842Z,13.58
2022-10-10T17:11:04.056Z,13.57
2022-10-10T17:13:31.340Z,13.35
2022-10-10T17:16:08.743Z,13.46
2022-10-10T17:18:44.778Z,13.52
2022-10-10T17:21:14.279Z,13.57
2022-10-10T17:23:41.066Z,13.65
2022-10-10T17:26:10.601Z,13.70
2022-10-10T17:28:38.037Z,13.74
2022-10-10T17:31:10.082Z,13.72
2022-10-10T17:33:37.625Z,13.52
2022-10-10T17:36:16.781Z,13.55
2022-10-10T17:38:44.377Z,13.50
2022-10-10T17:41:12.866Z,13.36
2022-10-10T17:43:39.686Z,13.13
2022-10-10T17:46:33.200Z,13.05
2022-10-10T17:48:56.893Z,13.12
2022-10-10T17:51:23.914Z,13.14
2022-10-10T17:53:52.461Z,13.35
2022-10-10T17:56:21.532Z,13.31
2022-10-10T17:58:49.571Z,13.35
2022-10-10T18:01:20.862Z,13.01
2022-10-10T18:03:48.521Z,13.05
2022-10-10T18:06:18.017Z,13.16
2022-10-10T18:08:46.950Z,13.16
2022-10-10T18:11:20.076Z,13.16
2022-10-10T18:13:47.382Z,12.97
2022-10-10T18:16:22.877Z,13.08
2022-10-10T18:18:51.879Z,13.19
2022-10-10T18:21:23.562Z,13.07
2022-10-10T18:23:50.668Z,13.10
2022-10-10T18:26:20.484Z,13.17
2022-10-10T18:28:47.705Z,13.10
2022-10-10T18:31:22.725Z,12.96
2022-10-10T18:33:50.146Z,13.17
2022-10-10T18:36:19.452Z,13.45
2022-10-10T18:38:46.907Z,13.46
2022-10-10T18:41:19.334Z,13.50
2022-10-10T19:21:38.563Z,12.17
2022-10-10T19:24:08.409Z,12.47
2022-10-10T19:26:36.563Z,12.33
2022-10-10T19:29:07.252Z,12.31
2022-10-10T20:28:10.475Z,12.51
2022-10-10T20:30:42.869Z,12.23
2022-10-10T20:33:09.479Z,12.58
2022-10-10T20:35:37.019Z,12.16
2022-10-10T20:38:04.851Z,12.10
2022-10-10T20:40:31.635Z,11.99
2022-10-10T20:42:58.202Z,12.09
2022-10-10T20:45:24.842Z,12.04
2022-10-10T20:47:51.341Z,12.21
2022-10-10T20:50:17.975Z,12.17
2022-10-10T20:52:44.494Z,12.15
2022-10-10T20:55:11.379Z,12.08
2022-10-10T20:57:38.032Z,11.84
2022-10-10T21:00:05.826Z,12.20
2022-10-10T21:02:32.468Z,12.38
2022-10-10T21:04:59.354Z,12.40
2022-10-10T21:07:28.353Z,11.51
2022-10-10T21:09:54.967Z,11.53
2022-10-10T21:12:21.588Z,11.48
2022-10-10T21:14:48.157Z,11.33
2022-10-10T21:17:14.682Z,11.00
2022-10-10T21:19:41.316Z,10.85
2022-10-10T21:22:07.945Z,10.73
2022-10-10T21:24:34.501Z,10.73
2022-10-10T21:27:01.276Z,10.72
2022-10-10T21:29:27.888Z,10.71
2022-10-10T21:31:54.417Z,10.73
2022-10-10T21:34:21.039Z,10.79
2022-10-10T21:36:47.836Z,10.84
2022-10-10T21:39:15.040Z,10.89
2022-10-10T21:41:41.735Z,10.84
2022-10-10T21:44:10.277Z,10.97
2022-10-10T21:46:37.347Z,10.98
2022-10-10T21:49:08.757Z,11.09
2022-10-10T21:51:41.769Z,11.20
2022-10-10T21:54:09.630Z,11.16
2022-10-10T21:56:36.844Z,11.16
2022-10-10T21:59:04.647Z,11.18
2022-10-10T22:01:33.171Z,11.17
2022-10-10T22:04:02.467Z,11.14
2022-10-10T22:06:30.459Z,11.21
2022-10-10T22:08:59.080Z,11.09
2022-10-10T22:11:28.321Z,11.21
2022-10-10T22:13:55.426Z,11.16
2022-10-10T22:16:22.722Z,11.04
2022-10-10T22:18:54.413Z,10.91
2022-10-10T22:21:21.403Z,11.23
2022-10-10T22:23:48.536Z,11.33
2022-10-10T22:26:18.946Z,11.05
2022-10-10T22:28:48.809Z,10.85
2022-10-10T22:31:37.926Z,10.88
2022-10-10T22:34:06.044Z,10.93
2022-10-10T22:36:32.798Z,11.05
2022-10-10T22:38:59.496Z,10.88
2022-10-10T22:41:26.105Z,10.79
2022-10-10T22:43:52.729Z,10.65
2022-10-10T22:46:19.295Z,10.94
2022-10-10T22:48:46.130Z,11.05
2022-10-10T22:51:16.203Z,10.93
2022-10-10T22:53:44.061Z,10.84
2022-10-10T22:56:12.045Z,10.72
2022-10-10T22:58:38.678Z,10.66
2022-10-10T23:01:11.154Z,10.76
2022-10-10T23:03:37.826Z,10.82
2022-10-10T23:06:04.916Z,10.84
2022-10-10T23:08:32.016Z,10.90
2022-10-10T23:10:58.858Z,10.69
2022-10-10T23:13:25.733Z,10.57
2022-10-10T23:15:52.410Z,10.71
2022-10-10T23:18:19.033Z,10.73
2022-10-10T23:20:47.175Z,10.73
2022-10-10T23:23:15.023Z,10.64
2022-10-10T23:25:43.421Z,10.60
2022-10-10T23:28:12.418Z,10.58
2022-10-10T23:30:43.292Z,10.62
2022-10-10T23:33:10.836Z,10.61
2022-10-10T23:35:37.971Z,10.44
2022-10-10T23:38:04.912Z,10.57
2022-10-10T23:40:34.190Z,10.75
2022-10-10T23:43:00.933Z,10.73
2022-10-10T23:45:27.402Z,10.64
2022-10-10T23:47:53.992Z,10.47
2022-10-10T23:50:20.521Z,10.38
2022-10-10T23:52:47.190Z,10.20
2022-10-10T23:55:13.648Z,10.39
2022-10-10T23:57:40.276Z,10.29
